Time;durP1;ratioP1;P1;durP2;ratioP2;P2;SDS_P1;SDS_P2;PMS_P1;PMS_P2;Temp;Humidity;BMP_temperature;BMP_pressure;BME280_temperature;BME280_humidity;BME280_pressure;Samples;Min_cycle;Max_cycle;Signal;HPM_P1;HPM_P2
2022/04/05 00:01:16;;;;;;;;;;;19.70;45.30;;;;;;5105048;27;43056;-74
2022/04/05 00:03:42;;;;;;;;;;;19.70;45.40;;;;;;5105551;27;43328;-74
2022/04/05 00:06:07;;;;;;;;;;;19.70;45.30;;;;;;5106199;27;43006;-73
2022/04/05 00:08:33;;;;;;;;;;;19.70;45.40;;;;;;5122201;27;42839;-74
2022/04/05 00:10:58;;;;;;;;;;;19.70;45.40;;;;;;5125868;27;43023;-74
2022/04/05 00:13:24;;;;;;;;;;;19.70;45.40;;;;;;5125849;27;43713;-74
2022/04/05 00:15:49;;;;;;;;;;;19.70;45.40;;;;;;5125347;27;42801;-74
2022/04/05 00:18:15;;;;;;;;;;;19.70;45.40;;;;;;5126072;27;42754;-74
2022/04/05 00:20:41;;;;;;;;;;;19.70;45.40;;;;;;5126428;27;42832;-75
2022/04/05 00:23:06;;;;;;;;;;;19.70;45.50;;;;;;5125648;27;42919;-74
2022/04/05 00:25:32;;;;;;;;;;;19.70;45.50;;;;;;5126503;27;42936;-75
2022/04/05 00:27:58;;;;;;;;;;;19.70;45.50;;;;;;5125960;27;42901;-75
2022/04/05 00:30:23;;;;;;;;;;;19.70;45.60;;;;;;5125836;27;43047;-74
2022/04/05 00:32:49;;;;;;;;;;;19.70;45.50;;;;;;5126139;27;43140;-74
2022/04/05 00:35:14;;;;;;;;;;;19.70;45.60;;;;;;5125954;27;42963;-74
2022/04/05 00:37:40;;;;;;;;;;;19.70;45.60;;;;;;5125115;27;42910;-74
2022/04/05 00:40:06;;;;;;;;;;;19.70;45.60;;;;;;5125940;27;43025;-74
2022/04/05 00:42:32;;;;;;;;;;;19.70;45.60;;;;;;5126163;27;43492;-74
2022/04/05 00:44:58;;;;;;;;;;;19.70;45.60;;;;;;5125462;27;43082;-74
2022/04/05 00:47:24;;;;;;;;;;;19.70;45.70;;;;;;5125710;27;42927;-74
2022/04/05 00:49:50;;;;;;;;;;;19.70;45.70;;;;;;5126189;27;42983;-74
2022/04/05 00:52:16;;;;;;;;;;;19.70;45.70;;;;;;5125199;27;42871;-74
2022/04/05 00:54:44;;;;;;;;;;;19.70;45.80;;;;;;5125128;27;42827;-75
2022/04/05 00:57:10;;;;;;;;;;;19.70;45.80;;;;;;5125568;27;43010;-74
2022/04/05 00:59:38;;;;;;;;;;;19.70;45.80;;;;;;5124743;27;43015;-75
2022/04/05 01:02:04;;;;;;;;;;;19.70;45.80;;;;;;5125535;27;43034;-74
2022/04/05 01:04:30;;;;;;;;;;;19.80;45.90;;;;;;5125929;27;43110;-75
2022/04/05 01:06:56;;;;;;;;;;;19.70;45.90;;;;;;5124859;27;42857;-74
2022/04/05 01:09:22;;;;;;;;;;;19.70;45.90;;;;;;5125556;27;43057;-74
2022/04/05 01:11:48;;;;;;;;;;;19.80;46.00;;;;;;5127505;27;42922;-75
2022/04/05 01:14:13;;;;;;;;;;;19.80;46.00;;;;;;5128663;27;42863;-75
2022/04/05 01:16:39;;;;;;;;;;;19.70;46.10;;;;;;5128979;27;43141;-75
2022/04/05 01:19:06;;;;;;;;;;;19.80;46.00;;;;;;5128909;27;42790;-74
2022/04/05 01:21:34;;;;;;;;;;;19.80;46.10;;;;;;5128793;27;43326;-74
2022/04/05 01:24:04;;;;;;;;;;;19.80;46.10;;;;;;5129401;27;42915;-74
2022/04/05 01:26:36;;;;;;;;;;;19.70;46.00;;;;;;5128683;27;42864;-75
2022/04/05 01:29:02;;;;;;;;;;;19.70;46.10;;;;;;5127574;27;43227;-74
2022/04/05 01:31:27;;;;;;;;;;;19.80;46.20;;;;;;5128064;27;42940;-75
2022/04/05 01:33:53;;;;;;;;;;;19.70;46.10;;;;;;5128374;27;42982;-75
2022/04/05 01:36:22;;;;;;;;;;;19.80;46.20;;;;;;5128399;27;43096;-74
2022/04/05 01:38:48;;;;;;;;;;;19.80;46.30;;;;;;5128391;27;42972;-74
2022/04/05 01:41:13;;;;;;;;;;;19.80;46.30;;;;;;5128403;27;43414;-74
2022/04/05 01:43:40;;;;;;;;;;;19.70;46.20;;;;;;5128413;27;42925;-74
2022/04/05 01:46:06;;;;;;;;;;;19.80;46.30;;;;;;5128038;27;42903;-74
2022/04/05 01:48:31;;;;;;;;;;;19.80;46.40;;;;;;5127932;27;43038;-74
2022/04/05 01:50:57;;;;;;;;;;;19.80;46.40;;;;;;5127781;27;43073;-74
2022/04/05 01:53:23;;;;;;;;;;;19.80;46.40;;;;;;5127352;27;43073;-74
2022/04/05 01:55:48;;;;;;;;;;;19.80;46.40;;;;;;5128732;27;43677;-74
2022/04/05 01:58:14;;;;;;;;;;;19.80;46.40;;;;;;5128139;27;42962;-74
2022/04/05 02:00:39;;;;;;;;;;;19.80;46.40;;;;;;5127977;27;43649;-75
2022/04/05 02:03:05;;;;;;;;;;;19.70;46.50;;;;;;5127896;27;43032;-74
2022/04/05 02:05:30;;;;;;;;;;;19.80;46.50;;;;;;5128431;27;43001;-74
2022/04/05 02:07:56;;;;;;;;;;;19.80;46.50;;;;;;5127892;27;42873;-74
2022/04/05 02:10:21;;;;;;;;;;;19.80;46.50;;;;;;5128348;27;43747;-74
2022/04/05 02:12:47;;;;;;;;;;;19.80;46.60;;;;;;5127599;27;42814;-74
2022/04/05 02:15:13;;;;;;;;;;;19.70;46.60;;;;;;5126743;27;43930;-74
2022/04/05 02:17:38;;;;;;;;;;;19.80;46.60;;;;;;5110707;27;43513;-73
2022/04/05 02:20:05;;;;;;;;;;;19.80;46.60;;;;;;5107472;27;43544;-73
2022/04/05 02:22:31;;;;;;;;;;;19.70;46.50;;;;;;5106797;27;42997;-73
2022/04/05 02:24:57;;;;;;;;;;;19.80;46.60;;;;;;5106818;27;43027;-73
2022/04/05 02:27:23;;;;;;;;;;;19.80;46.70;;;;;;5105998;27;43554;-73
2022/04/05 02:29:48;;;;;;;;;;;19.80;46.70;;;;;;5106168;27;42969;-73
2022/04/05 02:32:14;;;;;;;;;;;19.80;46.80;;;;;;5105775;27;43049;-74
2022/04/05 02:34:39;;;;;;;;;;;19.80;46.70;;;;;;5106114;27;42996;-75
2022/04/05 02:37:05;;;;;;;;;;;19.70;46.70;;;;;;5104812;27;42991;-74
2022/04/05 02:39:31;;;;;;;;;;;19.80;46.80;;;;;;5106652;27;43844;-73
2022/04/05 02:41:56;;;;;;;;;;;19.80;46.80;;;;;;5105920;27;42843;-74
2022/04/05 02:44:22;;;;;;;;;;;19.80;46.80;;;;;;5105211;27;42841;-73
2022/04/05 02:46:47;;;;;;;;;;;19.80;46.90;;;;;;5106051;27;42898;-74
2022/04/05 02:49:13;;;;;;;;;;;19.80;46.90;;;;;;5105521;27;43038;-74
2022/04/05 02:51:39;;;;;;;;;;;19.70;46.80;;;;;;5105748;27;42991;-73
2022/04/05 02:54:04;;;;;;;;;;;19.80;46.90;;;;;;5106033;27;42968;-73
2022/04/05 02:56:30;;;;;;;;;;;19.80;46.90;;;;;;5106317;27;42893;-74
2022/04/05 02:58:55;;;;;;;;;;;19.80;47.00;;;;;;5104809;27;43992;-74
2022/04/05 03:01:21;;;;;;;;;;;19.80;46.90;;;;;;5105243;27;42979;-74
2022/04/05 03:03:47;;;;;;;;;;;19.80;46.90;;;;;;5105638;27;42936;-74
2022/04/05 03:06:14;;;;;;;;;;;19.80;47.00;;;;;;5104628;27;42850;-73
2022/04/05 03:08:40;;;;;;;;;;;19.80;47.00;;;;;;5106321;27;42853;-74
2022/04/05 03:11:06;;;;;;;;;;;19.80;47.10;;;;;;5105999;27;43175;-73
2022/04/05 03:13:32;;;;;;;;;;;19.70;47.00;;;;;;5105098;27;44866;-74
2022/04/05 03:15:58;;;;;;;;;;;19.80;47.00;;;;;;5105389;27;43110;-74
2022/04/05 03:18:24;;;;;;;;;;;19.80;47.00;;;;;;5105162;27;42921;-73
2022/04/05 03:20:50;;;;;;;;;;;19.80;47.10;;;;;;5104404;27;42886;-74
2022/04/05 03:23:15;;;;;;;;;;;19.70;47.00;;;;;;5105928;27;43464;-73
2022/04/05 03:25:41;;;;;;;;;;;19.80;47.10;;;;;;5105938;27;42860;-74
2022/04/05 03:28:07;;;;;;;;;;;19.80;47.10;;;;;;5105201;27;43434;-73
2022/04/05 03:30:32;;;;;;;;;;;19.80;47.20;;;;;;5103902;27;42805;-74
2022/04/05 03:32:58;;;;;;;;;;;19.80;47.70;;;;;;5105222;27;43069;-73
2022/04/05 03:35:24;;;;;;;;;;;19.80;47.20;;;;;;5104875;27;42980;-74
2022/04/05 03:37:49;;;;;;;;;;;19.70;47.10;;;;;;5105399;27;42909;-73
2022/04/05 03:40:15;;;;;;;;;;;19.80;47.20;;;;;;5105594;27;43018;-73
2022/04/05 03:42:40;;;;;;;;;;;19.80;47.20;;;;;;5105079;27;43592;-74
2022/04/05 03:45:06;;;;;;;;;;;19.70;47.20;;;;;;5111090;27;42961;-75
2022/04/05 03:47:32;;;;;;;;;;;19.80;47.20;;;;;;5124017;27;42962;-74
2022/04/05 03:49:58;;;;;;;;;;;19.80;47.40;;;;;;5122225;27;43293;-74
2022/04/05 03:52:23;;;;;;;;;;;19.70;47.20;;;;;;5133947;27;43475;-74
2022/04/05 03:54:49;;;;;;;;;;;19.70;47.30;;;;;;5130197;27;43289;-74
2022/04/05 03:57:14;;;;;;;;;;;19.70;47.30;;;;;;5128754;27;43020;-74
2022/04/05 03:59:40;;;;;;;;;;;19.80;47.30;;;;;;5125260;27;43151;-74
2022/04/05 04:02:05;;;;;;;;;;;19.70;47.30;;;;;;5124319;27;43422;-74
2022/04/05 04:04:31;;;;;;;;;;;19.70;47.30;;;;;;5124109;27;43046;-74
2022/04/05 04:06:57;;;;;;;;;;;19.70;47.30;;;;;;5132603;27;43563;-75
2022/04/05 04:09:23;;;;;;;;;;;19.70;47.40;;;;;;5135275;27;42952;-75
2022/04/05 04:11:49;;;;;;;;;;;19.70;47.40;;;;;;5134235;27;42906;-75
2022/04/05 04:14:15;;;;;;;;;;;19.70;47.40;;;;;;5132351;27;42963;-74
2022/04/05 04:16:40;;;;;;;;;;;19.80;47.40;;;;;;5134367;27;42944;-74
2022/04/05 04:19:06;;;;;;;;;;;19.70;47.40;;;;;;5135333;27;43128;-75
2022/04/05 04:21:31;;;;;;;;;;;19.80;47.50;;;;;;5135828;27;42951;-76
2022/04/05 04:23:57;;;;;;;;;;;19.70;47.50;;;;;;5136440;27;42972;-75
2022/04/05 04:26:23;;;;;;;;;;;19.70;47.40;;;;;;5132422;27;42891;-74
2022/04/05 04:28:50;;;;;;;;;;;19.70;47.50;;;;;;5135412;27;43058;-74
2022/04/05 04:31:16;;;;;;;;;;;19.80;47.50;;;;;;5124979;27;43838;-75
2022/04/05 04:33:41;;;;;;;;;;;19.80;47.60;;;;;;5134701;27;43057;-75
2022/04/05 04:36:07;;;;;;;;;;;19.70;47.50;;;;;;5123362;27;43774;-74
2022/04/05 04:38:32;;;;;;;;;;;19.70;47.60;;;;;;5125513;27;43109;-75
2022/04/05 04:40:58;;;;;;;;;;;19.70;47.60;;;;;;5123350;27;42986;-74
2022/04/05 04:43:24;;;;;;;;;;;19.70;47.60;;;;;;5123893;27;42959;-75
2022/04/05 04:45:49;;;;;;;;;;;19.70;47.70;;;;;;5123538;27;43029;-74
2022/04/05 04:48:15;;;;;;;;;;;19.80;47.60;;;;;;5126428;27;42931;-75
2022/04/05 04:50:41;;;;;;;;;;;19.70;47.70;;;;;;5126298;27;43198;-75
2022/04/05 04:53:06;;;;;;;;;;;19.70;47.60;;;;;;5127084;27;43146;-74
2022/04/05 04:55:32;;;;;;;;;;;19.70;47.60;;;;;;5126731;27;42911;-74
2022/04/05 04:57:58;;;;;;;;;;;19.70;47.60;;;;;;5127628;27;42976;-73
2022/04/05 05:00:23;;;;;;;;;;;19.70;47.70;;;;;;5134058;27;42963;-73
2022/04/05 05:02:50;;;;;;;;;;;19.70;47.70;;;;;;5127482;27;43909;-74
2022/04/05 05:05:16;;;;;;;;;;;19.80;47.80;;;;;;5138179;27;43463;-77
2022/04/05 05:07:44;;;;;;;;;;;19.70;47.70;;;;;;5136404;27;43293;-73
2022/04/05 05:10:11;;;;;;;;;;;19.70;47.70;;;;;;5131076;27;43168;-74
2022/04/05 05:12:42;;;;;;;;;;;19.70;47.70;;;;;;5127047;27;43021;-73
2022/04/05 05:15:09;;;;;;;;;;;19.70;47.70;;;;;;5133522;27;43208;-74
2022/04/05 05:17:35;;;;;;;;;;;19.70;47.70;;;;;;5139712;27;43154;-73
2022/04/05 05:20:02;;;;;;;;;;;19.70;47.80;;;;;;5131503;27;42976;-73
2022/04/05 05:22:27;;;;;;;;;;;19.40;47.90;;;;;;5117056;27;43641;-73
2022/04/05 05:24:56;;;;;;;;;;;19.70;47.80;;;;;;5131544;27;42754;-72
2022/04/05 05:27:22;;;;;;;;;;;19.70;48.10;;;;;;5111173;27;43364;-73
2022/04/05 05:29:47;;;;;;;;;;;19.70;48.00;;;;;;5127271;27;43031;-74
2022/04/05 05:32:13;;;;;;;;;;;19.70;47.90;;;;;;5129020;27;42879;-74
2022/04/05 05:34:38;;;;;;;;;;;19.70;47.90;;;;;;5129071;27;42918;-73
2022/04/05 05:37:05;;;;;;;;;;;19.70;47.90;;;;;;5136398;27;43132;-74
2022/04/05 05:39:33;;;;;;;;;;;19.70;47.90;;;;;;5137355;27;43233;-74
2022/04/05 05:41:59;;;;;;;;;;;19.70;47.90;;;;;;5137995;27;43060;-73
2022/04/05 05:44:24;;;;;;;;;;;19.70;48.00;;;;;;5129681;27;43799;-73
2022/04/05 05:46:50;;;;;;;;;;;19.70;47.90;;;;;;5128868;27;43026;-74
2022/04/05 05:49:16;;;;;;;;;;;19.70;48.00;;;;;;5128424;27;42915;-73
2022/04/05 05:51:42;;;;;;;;;;;19.70;48.20;;;;;;5134575;27;42997;-73
2022/04/05 05:54:07;;;;;;;;;;;19.70;48.00;;;;;;5127619;27;43115;-73
2022/04/05 05:56:33;;;;;;;;;;;19.70;48.00;;;;;;5116599;27;43257;-73
2022/04/05 05:58:59;;;;;;;;;;;19.70;48.00;;;;;;5113354;27;43665;-73
2022/04/05 06:01:24;;;;;;;;;;;19.70;48.10;;;;;;5118242;27;43017;-73
2022/04/05 06:03:50;;;;;;;;;;;19.70;48.10;;;;;;5108011;27;43536;-73
2022/04/05 06:06:16;;;;;;;;;;;19.70;48.10;;;;;;5118830;27;43231;-73
2022/04/05 06:08:42;;;;;;;;;;;19.70;48.10;;;;;;5118434;27;42943;-72
2022/04/05 06:11:07;;;;;;;;;;;19.70;48.10;;;;;;5115196;27;43076;-73
2022/04/05 06:13:33;;;;;;;;;;;19.70;48.10;;;;;;5105963;27;43231;-73
2022/04/05 06:15:59;;;;;;;;;;;19.70;48.20;;;;;;5111236;27;42991;-73
2022/04/05 06:18:24;;;;;;;;;;;19.70;48.20;;;;;;5110038;27;43144;-73
2022/04/05 06:20:50;;;;;;;;;;;19.70;48.20;;;;;;5115397;27;43045;-73
2022/04/05 06:23:16;;;;;;;;;;;19.70;48.20;;;;;;5108799;27;43560;-73
2022/04/05 06:25:41;;;;;;;;;;;19.70;48.20;;;;;;5106170;27;43047;-73
2022/04/05 06:28:08;;;;;;;;;;;19.70;48.20;;;;;;5105723;27;42989;-73
2022/04/05 06:30:34;;;;;;;;;;;19.70;48.30;;;;;;5105712;27;42962;-77
2022/04/05 06:33:11;;;;;;;;;;;19.70;48.30;;;;;;5103419;27;43573;-76
2022/04/05 06:35:40;;;;;;;;;;;19.70;48.30;;;;;;5097805;27;43098;-76
2022/04/05 06:38:06;;;;;;;;;;;19.70;48.30;;;;;;5107125;27;43798;-77
2022/04/05 06:40:31;;;;;;;;;;;19.70;48.30;;;;;;5101789;27;43011;-76
2022/04/05 06:42:57;;;;;;;;;;;19.70;48.30;;;;;;5098157;27;43074;-76
2022/04/05 06:45:24;;;;;;;;;;;19.70;48.30;;;;;;5099254;27;42994;-77
2022/04/05 06:47:50;;;;;;;;;;;19.70;48.40;;;;;;5101802;27;43070;-76
2022/04/05 06:50:20;;;;;;;;;;;19.70;48.40;;;;;;5104733;27;43254;-76
2022/04/05 06:52:46;;;;;;;;;;;19.70;48.40;;;;;;5100768;27;43415;-77
2022/04/05 06:55:12;;;;;;;;;;;19.70;48.50;;;;;;5128947;27;42951;-75
2022/04/05 06:57:38;;;;;;;;;;;19.70;48.50;;;;;;5126381;27;43552;-76
2022/04/05 07:00:05;;;;;;;;;;;19.70;48.50;;;;;;5132925;27;42997;-77
2022/04/05 07:02:30;;;;;;;;;;;19.70;48.50;;;;;;5125793;27;45210;-78
2022/04/05 07:04:56;;;;;;;;;;;19.70;48.50;;;;;;5136360;27;42812;-78
2022/04/05 07:07:21;;;;;;;;;;;19.70;48.50;;;;;;5131026;27;43569;-77
2022/04/05 07:09:47;;;;;;;;;;;19.70;48.50;;;;;;5130254;27;43072;-76
2022/04/05 07:12:12;;;;;;;;;;;19.70;48.60;;;;;;5129095;27;43460;-77
2022/04/05 07:14:39;;;;;;;;;;;19.70;48.50;;;;;;5134775;27;42987;-77
2022/04/05 07:17:05;;;;;;;;;;;19.70;48.60;;;;;;5126888;27;43041;-78
2022/04/05 07:19:30;;;;;;;;;;;19.70;48.60;;;;;;5123694;27;42976;-77
2022/04/05 07:21:56;;;;;;;;;;;19.70;48.70;;;;;;5117669;27;43225;-77
2022/04/05 07:24:22;;;;;;;;;;;19.70;48.60;;;;;;5124394;27;43042;-75
2022/04/05 07:26:47;;;;;;;;;;;19.70;48.70;;;;;;5137244;27;43892;-76
2022/04/05 07:29:13;;;;;;;;;;;19.70;48.70;;;;;;5132027;27;42986;-76
2022/04/05 07:31:38;;;;;;;;;;;19.70;48.60;;;;;;5125421;27;42990;-77
2022/04/05 07:34:04;;;;;;;;;;;19.70;48.70;;;;;;5122743;27;43137;-77
2022/04/05 07:36:30;;;;;;;;;;;19.70;48.70;;;;;;5127569;27;43064;-77
2022/04/05 07:38:56;;;;;;;;;;;19.70;48.70;;;;;;5121127;27;43303;-78
2022/04/05 07:41:21;;;;;;;;;;;19.70;48.70;;;;;;5116216;27;44122;-77
2022/04/05 07:43:47;;;;;;;;;;;19.70;48.70;;;;;;5125401;27;42998;-78
2022/04/05 07:46:12;;;;;;;;;;;19.70;48.70;;;;;;5133073;27;43031;-78
2022/04/05 07:48:39;;;;;;;;;;;19.70;48.70;;;;;;5128771;27;43002;-78
2022/04/05 07:51:05;;;;;;;;;;;19.70;48.70;;;;;;5125666;27;44648;-78
2022/04/05 07:53:31;;;;;;;;;;;19.70;48.70;;;;;;5128478;27;42951;-79
2022/04/05 07:55:57;;;;;;;;;;;19.70;48.70;;;;;;5124790;27;43086;-78
2022/04/05 07:58:25;;;;;;;;;;;19.70;48.80;;;;;;5120160;27;58497;-75
2022/04/05 08:00:51;;;;;;;;;;;19.70;48.70;;;;;;5130413;27;43530;-75
2022/04/05 08:03:17;;;;;;;;;;;19.70;48.60;;;;;;5123368;27;42875;-76
2022/04/05 08:05:43;;;;;;;;;;;19.70;48.60;;;;;;5119404;27;44258;-76
2022/04/05 08:08:08;;;;;;;;;;;19.70;48.60;;;;;;5125350;27;43049;-76
2022/04/05 08:10:34;;;;;;;;;;;19.70;48.50;;;;;;5125392;27;42995;-75
2022/04/05 08:13:00;;;;;;;;;;;19.70;48.60;;;;;;5125584;27;43140;-77
2022/04/05 08:15:26;;;;;;;;;;;20.00;48.90;;;;;;5117392;27;43043;-79
2022/04/05 08:17:52;;;;;;;;;;;19.70;48.40;;;;;;5131283;27;42944;-78
2022/04/05 08:20:17;;;;;;;;;;;19.70;46.70;;;;;;5118767;27;43116;-78
2022/04/05 08:22:44;;;;;;;;;;;19.60;46.30;;;;;;5120446;27;43038;-78
2022/04/05 08:25:10;;;;;;;;;;;19.60;47.80;;;;;;5114783;27;43090;-76
2022/04/05 08:27:36;;;;;;;;;;;19.60;46.90;;;;;;5125637;27;42991;-74
2022/04/05 08:30:02;;;;;;;;;;;19.50;45.80;;;;;;5121974;27;43296;-78
2022/04/05 08:32:27;;;;;;;;;;;19.50;46.20;;;;;;5123894;27;43192;-77
2022/04/05 08:34:53;;;;;;;;;;;19.50;46.10;;;;;;5113157;27;43956;-77
2022/04/05 08:37:19;;;;;;;;;;;19.50;45.50;;;;;;5121271;27;42956;-76
2022/04/05 08:39:44;;;;;;;;;;;19.40;44.30;;;;;;5124449;27;43117;-77
2022/04/05 08:42:12;;;;;;;;;;;19.40;45.80;;;;;;5122468;27;42983;-76
2022/04/05 08:44:37;;;;;;;;;;;19.40;45.30;;;;;;5122959;27;44044;-76
2022/04/05 08:47:04;;;;;;;;;;;19.30;41.50;;;;;;5121136;27;43011;-77
2022/04/05 08:49:30;;;;;;;;;;;19.30;44.00;;;;;;5121687;27;43077;-77
2022/04/05 08:51:58;;;;;;;;;;;19.30;43.80;;;;;;5122975;27;42944;-77
2022/04/05 08:54:23;;;;;;;;;;;19.20;43.70;;;;;;5123431;27;43502;-77
2022/04/05 08:56:50;;;;;;;;;;;19.20;44.40;;;;;;5121914;27;43165;-78
2022/04/05 08:59:16;;;;;;;;;;;19.20;42.30;;;;;;5122778;27;44967;-78
2022/04/05 09:01:41;;;;;;;;;;;19.20;43.20;;;;;;5122541;27;43028;-77
2022/04/05 09:04:07;;;;;;;;;;;19.20;43.90;;;;;;5128918;27;43577;-78
2022/04/05 09:06:34;;;;;;;;;;;19.20;43.20;;;;;;5124359;27;43057;-76
2022/04/05 09:09:10;;;;;;;;;;;19.00;42.00;;;;;;5123952;27;43267;-76
2022/04/05 09:11:36;;;;;;;;;;;19.10;43.40;;;;;;5123526;27;43229;-78
2022/04/05 09:14:04;;;;;;;;;;;19.10;43.40;;;;;;5133754;27;43438;-78
2022/04/05 09:16:33;;;;;;;;;;;19.00;42.00;;;;;;5127308;27;42961;-76
2022/04/05 09:18:59;;;;;;;;;;;19.00;42.70;;;;;;5120652;27;43659;-78
2022/04/05 09:21:25;;;;;;;;;;;19.00;43.20;;;;;;5115760;27;43028;-77
2022/04/05 09:23:52;;;;;;;;;;;19.00;43.90;;;;;;5120489;27;43052;-77
2022/04/05 09:26:18;;;;;;;;;;;19.00;43.10;;;;;;5123034;27;43006;-78
2022/04/05 09:28:45;;;;;;;;;;;19.00;43.30;;;;;;5122710;27;43909;-78
2022/04/05 09:31:12;;;;;;;;;;;19.00;41.90;;;;;;5123397;27;42986;-78
2022/04/05 09:33:39;;;;;;;;;;;19.00;43.10;;;;;;5126068;27;43004;-78
2022/04/05 09:36:15;;;;;;;;;;;18.90;40.50;;;;;;5127286;27;43322;-77
2022/04/05 09:38:43;;;;;;;;;;;18.90;42.70;;;;;;5124539;27;42996;-78
2022/04/05 09:41:12;;;;;;;;;;;18.90;41.30;;;;;;5126316;27;42979;-78
2022/04/05 09:43:48;;;;;;;;;;;18.90;42.30;;;;;;5125877;27;43362;-77
2022/04/05 09:46:14;;;;;;;;;;;18.90;42.20;;;;;;5127639;27;43011;-78
2022/04/05 09:48:40;;;;;;;;;;;18.90;42.70;;;;;;5124267;27;44219;-78
2022/04/05 09:51:10;;;;;;;;;;;18.90;42.40;;;;;;5122987;27;43043;-78
2022/04/05 09:53:39;;;;;;;;;;;18.90;42.30;;;;;;5113909;27;43120;-77
2022/04/05 09:56:07;;;;;;;;;;;18.80;41.10;;;;;;5104999;27;42985;-78
2022/04/05 09:58:34;;;;;;;;;;;18.80;42.40;;;;;;5106644;27;43099;-77
2022/04/05 10:01:05;;;;;;;;;;;18.80;42.00;;;;;;5107240;27;43079;-77
2022/04/05 10:03:30;;;;;;;;;;;18.80;41.80;;;;;;5116492;27;42977;-75
2022/04/05 10:05:56;;;;;;;;;;;18.80;41.90;;;;;;5105964;27;43249;-76
2022/04/05 10:08:21;;;;;;;;;;;18.80;41.20;;;;;;5106256;27;43616;-77
2022/04/05 10:10:47;;;;;;;;;;;18.80;42.10;;;;;;5106392;27;43045;-77
2022/04/05 10:13:12;;;;;;;;;;;18.80;42.60;;;;;;5106398;27;43043;-77
2022/04/05 10:15:39;;;;;;;;;;;18.80;41.60;;;;;;5106079;27;42964;-76
2022/04/05 10:18:06;;;;;;;;;;;18.80;42.00;;;;;;5107368;27;43267;-77
2022/04/05 10:20:34;;;;;;;;;;;18.80;41.60;;;;;;5103662;27;43163;-76
2022/04/05 10:23:02;;;;;;;;;;;18.80;42.00;;;;;;5103833;27;43621;-78
2022/04/05 10:25:29;;;;;;;;;;;18.80;42.30;;;;;;5102472;27;42977;-77
2022/04/05 10:27:54;;;;;;;;;;;18.80;42.10;;;;;;5105506;27;42948;-77
2022/04/05 10:30:46;;;;;;;;;;;18.80;41.70;;;;;;5101778;27;43132;-76
2022/04/05 10:33:23;;;;;;;;;;;18.80;41.00;;;;;;5070635;27;43787;-79
2022/04/05 10:35:52;;;;;;;;;;;18.70;41.90;;;;;;5081514;27;43089;-78
2022/04/05 10:38:20;;;;;;;;;;;18.70;42.00;;;;;;5105695;27;43016;-78
2022/04/05 10:41:05;;;;;;;;;;;18.70;41.60;;;;;;5105372;27;42983;-76
2022/04/05 10:43:31;;;;;;;;;;;18.60;40.60;;;;;;5085928;27;45015;-79
2022/04/05 10:45:56;;;;;;;;;;;18.70;42.10;;;;;;5086491;27;44003;-79
2022/04/05 10:48:26;;;;;;;;;;;18.70;42.50;;;;;;5086613;27;44916;-78
2022/04/05 10:51:01;;;;;;;;;;;18.70;39.80;;;;;;5098584;27;44072;-78
2022/04/05 10:53:29;;;;;;;;;;;18.70;41.30;;;;;;5104942;27;43462;-77
2022/04/05 10:56:03;;;;;;;;;;;18.70;40.80;;;;;;5123690;27;43231;-78
2022/04/05 10:58:36;;;;;;;;;;;18.70;41.30;;;;;;5112552;27;43098;-76
2022/04/05 11:01:20;;;;;;;;;;;18.70;40.60;;;;;;5126581;27;43162;-77
2022/04/05 11:04:04;;;;;;;;;;;18.70;41.40;;;;;;5125327;27;42930;-77
2022/04/05 11:06:50;;;;;;;;;;;18.70;40.10;;;;;;5125856;27;42920;-77
2022/04/05 11:09:25;;;;;;;;;;;18.60;40.60;;;;;;5120244;27;43143;-76
2022/04/05 11:11:52;;;;;;;;;;;18.60;39.50;;;;;;5122899;27;43055;-76
2022/04/05 11:14:37;;;;;;;;;;;18.60;40.80;;;;;;5123280;27;43807;-75
2022/04/05 11:17:05;;;;;;;;;;;18.60;40.20;;;;;;5124822;27;43093;-77
2022/04/05 11:19:33;;;;;;;;;;;18.60;40.80;;;;;;5123759;27;43190;-77
2022/04/05 11:22:02;;;;;;;;;;;18.60;41.20;;;;;;5124960;27;42961;-77
2022/04/05 11:24:47;;;;;;;;;;;18.60;41.10;;;;;;5123611;27;43673;-77
2022/04/05 11:27:42;;;;;;;;;;;18.60;41.20;;;;;;5122226;27;43074;-76
2022/04/05 11:30:26;;;;;;;;;;;18.60;39.90;;;;;;5115166;27;44270;-74
2022/04/05 11:33:16;;;;;;;;;;;18.60;40.70;;;;;;5141282;27;43277;-77
2022/04/05 11:35:43;;;;;;;;;;;18.60;40.80;;;;;;5141642;27;43698;-76
2022/04/05 11:38:18;;;;;;;;;;;18.60;40.70;;;;;;5140981;27;43174;-76
2022/04/05 11:40:47;;;;;;;;;;;18.60;41.10;;;;;;5132260;27;43088;-76
2022/04/05 11:43:24;;;;;;;;;;;18.60;40.90;;;;;;5123815;27;43123;-75
2022/04/05 11:45:51;;;;;;;;;;;18.60;40.80;;;;;;5127773;27;43339;-76
2022/04/05 11:48:17;;;;;;;;;;;18.60;41.00;;;;;;5129484;27;43827;-75
2022/04/05 11:50:44;;;;;;;;;;;18.60;40.20;;;;;;5130410;27;43730;-75
2022/04/05 11:53:20;;;;;;;;;;;18.60;40.30;;;;;;5127642;27;42990;-76
2022/04/05 11:56:00;;;;;;;;;;;18.60;40.90;;;;;;5124511;27;43884;-78
2022/04/05 11:58:28;;;;;;;;;;;18.60;40.90;;;;;;5124596;27;43032;-77
2022/04/05 12:00:54;;;;;;;;;;;18.60;40.90;;;;;;5124974;27;43030;-78
2022/04/05 12:03:19;;;;;;;;;;;18.60;41.10;;;;;;5130173;27;42888;-77
2022/04/05 12:05:46;;;;;;;;;;;18.50;41.10;;;;;;5121309;27;43088;-78
2022/04/05 12:08:12;;;;;;;;;;;18.60;41.20;;;;;;5127268;27;43058;-79
2022/04/05 12:10:39;;;;;;;;;;;18.50;41.20;;;;;;5131447;27;43037;-80
2022/04/05 12:13:05;;;;;;;;;;;18.60;41.40;;;;;;5125496;27;43037;-79
2022/04/05 12:15:32;;;;;;;;;;;18.50;41.40;;;;;;5128837;27;43012;-80
2022/04/05 12:18:17;;;;;;;;;;;18.50;41.40;;;;;;5118636;27;43366;-80
2022/04/05 12:20:54;;;;;;;;;;;18.60;41.60;;;;;;5121571;27;43042;-80
2022/04/05 12:23:21;;;;;;;;;;;18.60;41.60;;;;;;5118113;27;43644;-80
2022/04/05 12:26:01;;;;;;;;;;;18.60;41.60;;;;;;5125149;27;43508;-80
2022/04/05 12:28:27;;;;;;;;;;;22.10;43.40;;;;;;5120782;27;43124;-80
2022/04/05 12:30:52;;;;;;;;;;;18.60;41.80;;;;;;5119227;27;43059;-79
2022/04/05 12:33:24;;;;;;;;;;;18.60;41.80;;;;;;5119420;27;43078;-79
2022/04/05 12:35:50;;;;;;;;;;;18.60;41.80;;;;;;5117705;27;44361;-80
2022/04/05 12:38:16;;;;;;;;;;;18.60;41.90;;;;;;5126543;27;42991;-80
2022/04/05 12:40:41;;;;;;;;;;;18.60;41.90;;;;;;5119792;27;45523;-79
2022/04/05 12:43:17;;;;;;;;;;;18.60;41.80;;;;;;5129391;27;42975;-78
2022/04/05 12:45:43;;;;;;;;;;;18.60;41.90;;;;;;5135000;27;43793;-78
2022/04/05 12:48:12;;;;;;;;;;;18.60;42.00;;;;;;5132159;27;43102;-78
2022/04/05 12:50:44;;;;;;;;;;;18.70;42.00;;;;;;5129340;27;43154;-79
2022/04/05 12:53:09;;;;;;;;;;;18.60;42.00;;;;;;5129181;27;42887;-77
2022/04/05 12:55:35;;;;;;;;;;;18.60;42.10;;;;;;5108177;27;43030;-71
2022/04/05 12:58:00;;;;;;;;;;;18.60;41.90;;;;;;5113249;27;43016;-74
2022/04/05 13:00:28;;;;;;;;;;;18.60;42.00;;;;;;5111977;27;43474;-72
2022/04/05 13:02:55;;;;;;;;;;;18.60;42.00;;;;;;5104739;27;42947;-72
2022/04/05 13:08:09;;;;;;;;;;;18.70;42.10;;;;;;5115623;27;43002;-72
2022/04/05 13:10:35;;;;;;;;;;;18.70;42.20;;;;;;5109897;27;42943;-72
2022/04/05 13:13:14;;;;;;;;;;;18.70;42.20;;;;;;5128952;27;43114;-72
2022/04/05 13:15:41;;;;;;;;;;;18.60;42.20;;;;;;5120811;27;43476;-72
2022/04/05 13:18:07;;;;;;;;;;;18.70;42.20;;;;;;5111270;27;42988;-72
2022/04/05 13:20:32;;;;;;;;;;;18.70;42.20;;;;;;5107614;27;42932;-72
2022/04/05 13:23:01;;;;;;;;;;;18.60;42.20;;;;;;5127904;27;43138;-72
2022/04/05 13:25:33;;;;;;;;;;;18.70;42.30;;;;;;5127629;27;43839;-75
2022/04/05 13:27:59;;;;;;;;;;;18.70;42.30;;;;;;5121004;27;43027;-74
2022/04/05 13:30:25;;;;;;;;;;;18.70;42.30;;;;;;5116825;27;43695;-74
2022/04/05 13:33:04;;;;;;;;;;;18.70;42.30;;;;;;5128241;27;42878;-75
2022/04/05 13:35:29;;;;;;;;;;;18.70;42.30;;;;;;5126322;27;43461;-75
2022/04/05 13:37:55;;;;;;;;;;;18.70;42.30;;;;;;5122391;27;43006;-72
2022/04/05 13:40:20;;;;;;;;;;;18.70;42.30;;;;;;5107615;27;44271;-72
2022/04/05 13:42:46;;;;;;;;;;;18.70;42.30;;;;;;5088399;27;42989;-72
2022/04/05 13:45:12;;;;;;;;;;;18.70;42.30;;;;;;5106660;27;43575;-72
2022/04/05 13:47:38;;;;;;;;;;;18.70;42.40;;;;;;5111055;27;43142;-72
2022/04/05 13:50:04;;;;;;;;;;;18.70;42.40;;;;;;5096423;27;42896;-73
2022/04/05 13:52:30;;;;;;;;;;;18.70;42.40;;;;;;5104384;27;43160;-71
2022/04/05 13:54:55;;;;;;;;;;;18.70;42.40;;;;;;5104866;27;43501;-72
2022/04/05 13:57:21;;;;;;;;;;;18.70;42.40;;;;;;5105495;27;42983;-74
2022/04/05 13:59:46;;;;;;;;;;;18.70;42.40;;;;;;5105340;27;43779;-75
2022/04/05 14:02:12;;;;;;;;;;;18.70;42.40;;;;;;5103773;27;43228;-74
2022/04/05 14:04:38;;;;;;;;;;;18.70;42.40;;;;;;5105497;27;42948;-73
2022/04/05 14:07:03;;;;;;;;;;;18.70;42.40;;;;;;5104525;27;43251;-73
2022/04/05 14:09:29;;;;;;;;;;;18.70;42.40;;;;;;5102956;27;43930;-74
2022/04/05 14:11:54;;;;;;;;;;;18.70;42.40;;;;;;5100689;27;43481;-73
2022/04/05 14:14:20;;;;;;;;;;;18.70;42.40;;;;;;5104278;27;42915;-73
2022/04/05 14:16:47;;;;;;;;;;;18.70;42.40;;;;;;5111513;27;43093;-72
2022/04/05 14:19:12;;;;;;;;;;;18.70;42.40;;;;;;5107720;27;43152;-73